createdAt,value
2019-01-19T00:08:46.537Z,19.95
2019-01-19T00:19:13.571Z,20.77
2019-01-19T00:29:23.467Z,20.05
2019-01-19T00:39:30.664Z,22.77
2019-01-19T00:49:35.704Z,23.90
2019-01-19T00:59:41.134Z,26.07
2019-01-19T01:09:57.280Z,24.80
2019-01-19T01:20:16.132Z,24.30
2019-01-19T01:30:41.314Z,24.27
2019-01-19T01:41:09.678Z,22.98
2019-01-19T01:51:31.960Z,23.02
2019-01-19T02:01:41.887Z,23.87
2019-01-19T02:12:10.861Z,23.85
2019-01-19T02:22:32.975Z,25.02
2019-01-19T02:32:45.904Z,23.18
2019-01-19T02:43:11.208Z,23.42
2019-01-19T02:53:19.639Z,21.95
2019-01-19T03:03:42.202Z,21.48
2019-01-19T03:14:13.365Z,21.68
2019-01-19T03:24:26.250Z,20.75
2019-01-19T03:34:59.455Z,21.20
2019-01-19T03:45:14.991Z,19.37
2019-01-19T03:55:24.704Z,18.30
2019-01-19T04:05:37.826Z,17.62
2019-01-19T04:15:54.044Z,17.80
2019-01-19T04:26:00.770Z,17.35
2019-01-19T04:36:04.729Z,18.98
2019-01-19T04:46:08.764Z,19.95
2019-01-19T04:56:12.793Z,19.50
2019-01-19T05:06:17.009Z,20.90
2019-01-19T05:16:20.975Z,22.27
2019-01-19T05:26:24.935Z,24.02
2019-01-19T05:36:28.992Z,27.32
2019-01-19T05:46:33.017Z,24.00
2019-01-19T05:56:37.119Z,23.20
2019-01-19T06:06:46.566Z,24.05
2019-01-19T06:16:46.730Z,22.07
2019-01-19T06:26:50.694Z,20.52
2019-01-19T06:36:55.255Z,22.75
2019-01-19T06:46:59.428Z,26.07
2019-01-19T06:57:03.509Z,23.47
2019-01-19T07:07:07.523Z,24.60
2019-01-19T07:17:11.536Z,26.00
2019-01-19T07:27:15.777Z,24.32
2019-01-19T07:37:19.708Z,35.98
2019-01-19T07:57:31.270Z,26.40
2019-01-19T08:07:32.887Z,32.08
2019-01-19T08:17:36.814Z,35.83
2019-01-19T08:37:44.075Z,45.43
2019-01-19T08:47:48.003Z,40.90
2019-01-19T09:07:55.174Z,27.25
2019-01-19T09:28:02.347Z,21.68
2019-01-19T09:48:09.484Z,19.95
2019-01-19T10:08:16.599Z,22.52
2019-01-19T10:28:23.783Z,34.98
2019-01-19T10:38:27.800Z,20.50
2019-01-19T10:58:35.111Z,12.90
2019-01-19T11:18:42.344Z,15.53
2019-01-19T11:28:46.364Z,16.32
2019-01-19T11:38:50.488Z,20.45
2019-01-19T11:48:54.478Z,24.60
2019-01-19T12:09:01.739Z,21.33
2019-01-19T12:19:07.167Z,19.95
2019-01-19T12:39:14.263Z,14.63
2019-01-19T12:59:21.394Z,17.52
2019-01-19T13:19:34.598Z,17.27
2019-01-19T13:29:56.817Z,16.00
2019-01-19T13:40:09.716Z,15.65
2019-01-19T13:50:43.893Z,17.95
2019-01-19T14:11:17.132Z,47.10
2019-01-19T14:21:26.915Z,35.23
2019-01-19T14:31:52.100Z,46.70
2019-01-19T14:42:05.275Z,67.90
2019-01-19T14:52:27.166Z,47.87
2019-01-19T15:02:46.416Z,65.60
2019-01-19T15:13:02.753Z,47.62
2019-01-19T15:23:24.868Z,99.22
2019-01-19T15:34:00.512Z,64.97
2019-01-19T15:44:15.908Z,61.80
2019-01-19T15:54:31.927Z,82.08
2019-01-19T16:04:47.365Z,63.63
2019-01-19T16:15:09.493Z,69.17
2019-01-19T16:25:34.545Z,51.60
2019-01-19T16:35:53.749Z,55.50
2019-01-19T16:46:15.830Z,55.83
2019-01-19T16:56:25.779Z,38.60
2019-01-19T17:06:44.996Z,39.78
2019-01-19T17:16:55.347Z,41.95
2019-01-19T17:27:17.337Z,37.90
2019-01-19T17:37:27.256Z,39.67
2019-01-19T17:47:49.645Z,43.92
2019-01-19T17:58:12.957Z,63.10
2019-01-19T18:08:32.137Z,65.97
2019-01-19T18:18:48.127Z,62.65
2019-01-19T18:29:04.397Z,59.27
2019-01-19T18:39:11.679Z,56.92
2019-01-19T18:49:21.700Z,52.17
2019-01-19T18:59:28.915Z,97.75
2019-01-19T19:09:38.822Z,174.82
2019-01-19T19:19:58.323Z,85.92
2019-01-19T19:30:14.339Z,77.65
2019-01-19T19:40:21.678Z,129.87
2019-01-19T19:50:43.980Z,133.03
2019-01-19T20:00:48.303Z,126.00
2019-01-19T20:10:52.270Z,129.50
2019-01-19T20:20:56.232Z,107.80
2019-01-19T20:31:00.222Z,142.57
2019-01-19T20:41:04.336Z,123.00
2019-01-19T20:51:08.442Z,103.72
2019-01-19T21:01:13.395Z,74.40
2019-01-19T21:11:17.480Z,143.47
2019-01-19T21:21:21.544Z,88.50
2019-01-19T21:31:25.782Z,83.33
2019-01-19T21:41:29.674Z,80.95
2019-01-19T21:51:33.727Z,73.65
2019-01-19T22:01:38.148Z,75.67
2019-01-19T22:11:42.272Z,75.75
2019-01-19T22:21:46.250Z,80.97
2019-01-19T22:31:50.292Z,80.50
2019-01-19T22:41:54.243Z,167.40
2019-01-19T22:51:58.190Z,98.85
2019-01-19T23:02:02.530Z,140.47
2019-01-19T23:12:06.553Z,129.68
2019-01-19T23:22:10.612Z,127.90
2019-01-19T23:32:14.568Z,142.43
2019-01-19T23:42:18.514Z,116.20
2019-01-19T23:52:22.519Z,116.12
